Time;durP1;ratioP1;P1;durP2;ratioP2;P2;SDS_P1;SDS_P2;PMS_P1;PMS_P2;Temp;Humidity;BMP_temperature;BMP_pressure;BME280_temperature;BME280_humidity;BME280_pressure;Samples;Min_cycle;Max_cycle;Signal;HPM_P1;HPM_P2
2022/07/03 00:00:57;;;;;;;6.63;4.80;;;;;;;16.80;100.00;101742.00;2612681;36;20030;-53
2022/07/03 00:03:27;;;;;;;6.20;5.07;;;;;;;16.73;100.00;101735.50;2610161;36;20303;-55
2022/07/03 00:05:56;;;;;;;8.13;5.40;;;;;;;16.69;100.00;101735.97;2614153;36;20159;-53
2022/07/03 00:08:27;;;;;;;6.13;4.97;;;;;;;16.68;100.00;101735.13;2612876;36;20043;-53
2022/07/03 00:10:55;;;;;;;8.07;5.65;;;;;;;16.62;100.00;101735.72;2612873;36;20038;-56
2022/07/03 00:13:23;;;;;;;6.38;5.25;;;;;;;16.48;100.00;101736.25;2614229;36;20030;-55
2022/07/03 00:15:52;;;;;;;5.93;5.32;;;;;;;16.31;100.00;101746.94;2606162;36;20642;-55
2022/07/03 00:18:20;;;;;;;8.70;5.80;;;;;;;16.25;100.00;101747.53;2606131;36;20098;-56
2022/07/03 00:20:52;;;;;;;7.17;5.97;;;;;;;16.15;100.00;101750.34;2606146;36;20072;-55
2022/07/03 00:23:23;;;;;;;9.10;5.80;;;;;;;16.06;100.00;101741.22;2606187;36;20041;-57
2022/07/03 00:25:55;;;;;;;7.63;5.50;;;;;;;16.07;100.00;101742.06;2612366;36;21049;-56
2022/07/03 00:28:24;;;;;;;7.00;4.97;;;;;;;16.04;100.00;101740.50;2613821;31;20030;-54
2022/07/03 00:30:54;;;;;;;8.02;4.60;;;;;;;16.07;100.00;101736.63;2612477;36;20041;-57
2022/07/03 00:33:24;;;;;;;7.35;5.20;;;;;;;16.09;100.00;101740.03;2613482;31;20041;-56
2022/07/03 00:35:56;;;;;;;5.88;5.32;;;;;;;16.01;100.00;101738.09;2613263;36;20034;-53
2022/07/03 00:38:25;;;;;;;8.45;5.30;;;;;;;16.01;100.00;101746.22;2614062;31;20042;-56
2022/07/03 00:40:56;;;;;;;6.90;4.80;;;;;;;15.90;100.00;101743.69;2613235;36;20057;-57
2022/07/03 00:43:27;;;;;;;6.00;5.10;;;;;;;15.81;100.00;101752.75;2614012;36;20125;-55
2022/07/03 00:45:56;;;;;;;6.43;4.95;;;;;;;15.77;100.00;101747.59;2613321;36;20030;-56
2022/07/03 00:48:24;;;;;;;;;;;;;;;15.77;100.00;101747.59;2613911;36;20038;-57
2022/07/03 00:50:54;;;;;;;7.38;4.43;;;;;;;15.70;100.00;101749.19;2614128;36;19977;-55
2022/07/03 00:53:30;;;;;;;7.13;4.70;;;;;;;15.67;100.00;101752.19;2612941;36;20038;-52
2022/07/03 00:56:06;;;;;;;7.30;4.22;;;;;;;15.62;100.00;101749.09;2613874;36;20038;-55
2022/07/03 00:58:36;;;;;;;6.82;4.25;;;;;;;15.60;100.00;101745.66;2614443;36;20041;-52
2022/07/03 01:01:04;;;;;;;7.53;4.13;;;;;;;15.57;100.00;101735.94;2613283;36;20155;-56
2022/07/03 01:03:38;;;;;;;4.63;3.80;;;;;;;15.58;100.00;101742.22;2614706;36;20084;-57
2022/07/03 01:06:12;;;;;;;4.45;3.88;;;;;;;15.55;100.00;101747.97;2613639;31;20856;-57
2022/07/03 01:08:46;;;;;;;6.10;4.03;;;;;;;15.49;100.00;101740.38;2614872;31;20031;-56
2022/07/03 01:11:24;;;;;;;7.03;3.80;;;;;;;15.44;100.00;101739.97;2614310;36;20034;-56
2022/07/03 01:14:06;;;;;;;6.78;3.65;;;;;;;15.38;100.00;101736.84;2613850;36;20037;-54
2022/07/03 01:16:40;;;;;;;5.10;3.55;;;;;;;15.34;100.00;101734.56;2614366;31;20569;-52
2022/07/03 01:19:30;;;;;;;6.55;3.35;;;;;;;15.31;100.00;101738.44;2613767;36;20065;-55
2022/07/03 01:22:13;;;;;;;8.52;3.58;;;;;;;15.35;100.00;101731.72;2614292;36;20035;-52
2022/07/03 01:24:51;;;;;;;6.68;3.85;;;;;;;15.31;100.00;101732.16;2614300;31;20031;-53
2022/07/03 01:27:33;;;;;;;5.95;4.00;;;;;;;15.21;100.00;101735.75;2613014;36;20038;-57
2022/07/03 01:30:07;;;;;;;6.97;3.55;;;;;;;15.18;100.00;101735.16;2615016;31;20166;-56
2022/07/03 01:32:40;;;;;;;6.20;3.95;;;;;;;15.17;100.00;101736.19;2612929;36;20022;-52
2022/07/03 01:35:11;;;;;;;7.18;4.28;;;;;;;15.17;100.00;101730.75;2614765;36;20065;-57
2022/07/03 01:37:42;;;;;;;7.43;4.70;;;;;;;15.09;100.00;101736.91;2613848;36;20057;-52
2022/07/03 01:40:11;;;;;;;7.30;4.20;;;;;;;15.04;100.00;101737.31;2614928;31;20054;-58
2022/07/03 01:42:43;;;;;;;7.00;4.88;;;;;;;14.97;100.00;101732.63;2613884;36;20044;-58
2022/07/03 01:45:13;;;;;;;6.70;4.93;;;;;;;14.93;100.00;101720.34;2614645;36;20039;-53
2022/07/03 01:47:44;;;;;;;7.63;5.15;;;;;;;14.93;100.00;101723.94;2615370;36;20037;-54
2022/07/03 01:53:02;;;;;;;9.07;4.97;;;;;;;14.82;100.00;101729.50;2613823;31;20061;-54
2022/07/03 01:55:33;;;;;;;7.00;4.97;;;;;;;14.77;100.00;101727.22;2614185;36;20559;-55
2022/07/03 01:58:04;;;;;;;9.10;6.05;;;;;;;14.70;100.00;101728.78;2613065;36;20038;-56
2022/07/03 02:00:33;;;;;;;6.97;5.75;;;;;;;14.64;100.00;101724.78;2613709;36;20034;-54
2022/07/03 02:03:05;;;;;;;;;;;;;;;14.59;100.00;101727.03;2616626;39;20507;-58
2022/07/03 02:05:38;;;;;;;7.57;5.90;;;;;;;14.57;100.00;101722.75;2617392;47;19938;-53
2022/07/03 02:08:17;;;;;;;8.63;6.45;;;;;;;14.50;100.00;101719.72;2616232;36;20039;-55
2022/07/03 02:10:58;;;;;;;10.82;7.47;;;;;;;14.46;100.00;101710.19;2615029;36;20027;-57
2022/07/03 02:13:31;;;;;;;8.90;6.78;;;;;;;14.46;100.00;101702.94;2614383;36;20061;-56
2022/07/03 02:16:01;;;;;;;11.38;7.30;;;;;;;14.45;100.00;101701.19;2614333;36;20887;-52
2022/07/03 02:18:31;;;;;;;7.72;6.55;;;;;;;14.43;100.00;101696.91;2613983;31;20069;-57
2022/07/03 02:21:09;;;;;;;10.00;7.13;;;;;;;14.37;100.00;101699.22;2613608;36;20547;-56
2022/07/03 02:23:45;;;;;;;8.45;6.85;;;;;;;14.40;100.00;101708.03;2614535;36;20458;-55
2022/07/03 02:26:19;;;;;;;10.00;6.65;;;;;;;14.36;100.00;101707.47;2614151;36;20531;-58
2022/07/03 02:29:03;;;;;;;7.90;6.65;;;;;;;14.32;100.00;101711.44;2614011;36;20154;-53
2022/07/03 02:31:47;;;;;;;9.90;6.93;;;;;;;14.23;100.00;101709.59;2614304;36;20038;-54
2022/07/03 02:34:18;;;;;;;8.27;7.30;;;;;;;14.20;100.00;101716.13;2614085;36;20546;-56
2022/07/03 02:36:50;;;;;;;9.25;7.22;;;;;;;14.24;100.00;101708.59;2613948;36;20054;-56
2022/07/03 02:39:26;;;;;;;11.95;7.53;;;;;;;14.17;100.00;101711.00;2613764;36;20174;-54
2022/07/03 02:42:00;;;;;;;10.65;7.32;;;;;;;14.13;100.00;101701.44;2614459;36;20038;-58
2022/07/03 02:44:36;;;;;;;10.05;7.40;;;;;;;14.17;100.00;101700.16;2613870;31;20030;-54
2022/07/03 02:47:14;;;;;;;9.68;7.00;;;;;;;14.13;100.00;101701.44;2614614;36;20038;-55
2022/07/03 02:49:55;;;;;;;9.90;7.05;;;;;;;14.07;100.00;101705.53;2613570;36;20031;-56
2022/07/03 02:52:31;;;;;;;10.50;7.90;;;;;;;14.07;100.00;101710.97;2614014;31;20129;-55
2022/07/03 02:55:05;;;;;;;8.25;7.45;;;;;;;14.06;100.00;101711.09;2613166;36;20038;-56
2022/07/03 02:57:41;;;;;;;11.77;8.13;;;;;;;14.11;100.00;101714.25;2613474;36;20378;-57
2022/07/03 03:00:14;;;;;;;9.63;7.93;;;;;;;14.13;100.00;101723.97;2614268;36;20629;-55
2022/07/03 03:02:54;;;;;;;8.75;7.47;;;;;;;14.15;100.00;101721.13;2614284;36;20038;-53
2022/07/03 03:05:30;;;;;;;8.82;7.57;;;;;;;14.07;100.00;101727.19;2613059;36;20138;-56
2022/07/03 03:08:15;;;;;;;11.55;7.55;;;;;;;14.06;100.00;101722.81;2613742;36;20035;-54
2022/07/03 03:10:43;;;;;;;8.40;7.45;;;;;;;14.15;100.00;101731.94;2613767;36;20042;-56
2022/07/03 03:13:13;;;;;;;11.02;7.85;;;;;;;14.19;100.00;101719.81;2613295;36;20053;-55
2022/07/03 03:15:50;;;;;;;11.75;8.45;;;;;;;14.20;100.00;101725.09;2612886;36;20034;-54
2022/07/03 03:18:24;;;;;;;8.43;7.53;;;;;;;14.27;100.00;101722.69;2613592;36;20037;-58
2022/07/03 03:20:55;;;;;;;11.40;7.90;;;;;;;14.18;100.00;101726.25;2613506;36;20034;-57
2022/07/03 03:23:33;;;;;;;9.82;8.20;;;;;;;14.14;100.00;101717.53;2613463;36;20034;-56
2022/07/03 03:26:01;;;;;;;9.10;7.90;;;;;;;14.24;100.00;101722.97;2613470;36;20073;-56
2022/07/03 03:28:30;;;;;;;9.83;8.27;;;;;;;14.27;100.00;101720.00;2614083;31;20034;-56
2022/07/03 03:31:02;;;;;;;10.55;8.30;;;;;;;14.26;100.00;101714.72;2613976;36;20391;-55
2022/07/03 03:33:30;;;;;;;11.13;7.97;;;;;;;14.18;100.00;101710.84;2613186;36;20054;-56
2022/07/03 03:35:59;;;;;;;9.70;8.43;;;;;;;14.26;100.00;101707.44;2613432;36;20069;-55
2022/07/03 03:38:27;;;;;;;9.50;7.83;;;;;;;14.29;100.00;101717.16;2613652;36;20037;-54
2022/07/03 03:40:56;;;;;;;8.83;7.93;;;;;;;14.39;100.00;101711.75;2613066;36;20069;-57
2022/07/03 03:43:24;;;;;;;10.82;7.72;;;;;;;14.52;100.00;101712.34;2613742;36;20405;-52
2022/07/03 03:45:52;;;;;;;11.20;7.53;;;;;;;14.58;100.00;101717.19;2613445;31;20053;-54
2022/07/03 03:48:25;;;;;;;8.48;7.50;;;;;;;14.58;100.00;101719.91;2612755;36;20042;-55
2022/07/03 03:50:54;;;;;;;10.93;8.38;;;;;;;14.53;100.00;101714.03;2613976;31;20038;-54
2022/07/03 03:53:22;;;;;;;13.63;7.70;;;;;;;14.57;100.00;101714.63;2613189;36;20389;-56
2022/07/03 03:56:01;;;;;;;10.17;7.93;;;;;;;14.50;100.00;101714.31;2613300;36;20582;-55
2022/07/03 03:58:30;;;;;;;10.15;8.02;;;;;;;14.51;100.00;101710.63;2613817;36;20034;-57
2022/07/03 04:00:59;;;;;;;10.65;7.85;;;;;;;14.51;100.00;101710.63;2613751;31;20030;-55
2022/07/03 04:03:31;;;;;;;11.45;7.47;;;;;;;14.49;100.00;101697.22;2613342;36;20045;-53
2022/07/03 04:06:00;;;;;;;8.32;7.30;;;;;;;14.55;100.00;101712.06;2612458;36;20081;-55
2022/07/03 04:08:29;;;;;;;10.60;7.50;;;;;;;14.64;100.00;101702.25;2613439;36;20034;-56
2022/07/03 04:10:58;;;;;;;9.70;7.22;;;;;;;14.73;100.00;101711.38;2613156;36;20030;-55
2022/07/03 04:13:26;;;;;;;11.98;7.68;;;;;;;14.78;100.00;101709.97;2613133;36;20584;-52
2022/07/03 04:15:56;;;;;;;8.07;7.10;;;;;;;14.83;100.00;101709.53;2612462;36;20034;-56
2022/07/03 04:18:24;;;;;;;8.02;6.70;;;;;;;14.87;100.00;101710.97;2613192;36;20049;-55
2022/07/03 04:20:55;;;;;;;10.75;7.75;;;;;;;14.83;100.00;101715.81;2613432;31;20059;-54
2022/07/03 04:23:24;;;;;;;10.05;6.60;;;;;;;14.95;100.00;101719.22;2612813;36;20053;-56
2022/07/03 04:25:52;;;;;;;8.27;6.83;;;;;;;15.04;100.00;101714.78;2613805;36;20098;-58
2022/07/03 04:28:20;;;;;;;11.48;6.93;;;;;;;15.06;100.00;101716.34;2613277;36;20034;-54
2022/07/03 04:30:49;;;;;;;8.93;7.33;;;;;;;15.13;100.00;101718.47;2613490;36;20035;-55
2022/07/03 04:33:17;;;;;;;14.55;7.30;;;;;;;15.24;100.00;101718.34;2612808;36;20034;-53
2022/07/03 04:35:46;;;;;;;8.75;7.20;;;;;;;15.38;100.00;101722.44;2613377;36;20034;-51
2022/07/03 04:38:17;;;;;;;8.07;7.27;;;;;;;15.53;100.00;101715.56;2612348;36;20416;-56
2022/07/03 04:40:46;;;;;;;9.98;7.13;;;;;;;15.71;100.00;101715.63;2613404;36;20463;-58
2022/07/03 04:43:16;;;;;;;7.05;6.35;;;;;;;15.84;100.00;101714.44;2613116;36;20031;-55
2022/07/03 04:45:45;;;;;;;9.68;6.32;;;;;;;15.98;100.00;101716.66;2613453;36;20061;-54
2022/07/03 04:48:13;;;;;;;9.67;5.80;;;;;;;16.19;100.00;101705.53;2610924;36;20408;-54
2022/07/03 04:50:41;;;;;;;7.57;6.13;;;;;;;16.28;100.00;101706.47;2614234;36;20065;-52
2022/07/03 04:53:09;;;;;;;10.20;6.80;;;;;;;16.48;100.00;101703.66;2612896;36;20070;-55
2022/07/03 04:55:43;;;;;;;7.90;5.67;;;;;;;16.65;100.00;101705.50;2613581;36;20034;-53
2022/07/03 04:58:11;;;;;;;8.95;5.90;;;;;;;16.82;100.00;101696.47;2612486;36;20030;-57
2022/07/03 05:00:40;;;;;;;8.70;5.73;;;;;;;16.87;100.00;101695.16;2612531;36;20035;-56
2022/07/03 05:03:09;;;;;;;7.25;5.38;;;;;;;17.00;100.00;101701.09;2612842;36;20031;-56
2022/07/03 05:05:37;;;;;;;6.82;6.13;;;;;;;16.95;100.00;101698.00;2613191;36;20038;-53
2022/07/03 05:08:06;;;;;;;6.00;4.97;;;;;;;16.84;100.00;101700.91;2613046;36;20023;-56
2022/07/03 05:10:34;;;;;;;7.00;5.40;;;;;;;16.98;100.00;101714.00;2613483;31;20046;-54
2022/07/03 05:13:05;;;;;;;6.27;5.47;;;;;;;17.22;100.00;101707.88;2612646;36;20567;-56
2022/07/03 05:15:33;;;;;;;6.32;4.70;;;;;;;17.16;100.00;101706.63;2613214;36;20856;-56
2022/07/03 05:18:02;;;;;;;6.57;4.97;;;;;;;17.21;100.00;101710.75;2612969;36;20038;-55
2022/07/03 05:20:30;;;;;;;6.03;4.93;;;;;;;17.24;100.00;101715.88;2613396;36;20062;-55
2022/07/03 05:23:00;;;;;;;7.47;5.30;;;;;;;17.32;100.00;101710.50;2613192;36;20126;-57
2022/07/03 05:25:29;;;;;;;6.40;4.78;;;;;;;17.28;100.00;101714.56;2612037;36;20030;-53
2022/07/03 05:27:58;;;;;;;8.40;5.15;;;;;;;17.24;100.00;101718.59;2613649;31;20061;-53
2022/07/03 05:30:29;;;;;;;6.07;4.95;;;;;;;17.38;100.00;101709.84;2612458;36;20034;-55
2022/07/03 05:32:57;;;;;;;6.30;5.18;;;;;;;17.45;100.00;101708.22;2612389;36;20161;-56
2022/07/03 05:35:26;;;;;;;8.65;5.00;;;;;;;17.61;100.00;101722.94;2611678;36;21674;-55
2022/07/03 05:37:54;;;;;;;6.60;4.82;;;;;;;17.65;100.00;101727.91;2611605;36;20061;-56
2022/07/03 05:40:22;;;;;;;6.00;4.23;;;;;;;17.72;100.00;101722.63;2611016;36;20065;-55
2022/07/03 05:42:52;;;;;;;4.83;3.60;;;;;;;17.79;100.00;101712.81;2612968;36;20625;-55
2022/07/03 05:45:20;;;;;;;4.50;3.35;;;;;;;17.90;100.00;101708.97;2612772;36;20306;-53
2022/07/03 05:47:51;;;;;;;9.35;3.92;;;;;;;18.08;100.00;101716.19;2613195;36;20034;-56
2022/07/03 05:50:20;;;;;;;6.30;3.20;;;;;;;18.07;100.00;101715.34;2613818;36;20038;-53
2022/07/03 05:52:48;;;;;;;5.18;2.50;;;;;;;18.31;100.00;101721.88;2613199;36;20041;-53
2022/07/03 05:55:16;;;;;;;8.40;2.73;;;;;;;18.09;100.00;101718.75;2613875;36;20041;-54
2022/07/03 05:57:45;;;;;;;5.78;2.72;;;;;;;18.14;100.00;101712.84;2613031;36;20034;-51
2022/07/03 06:00:14;;;;;;;5.73;2.50;;;;;;;18.36;100.00;101714.94;2613061;36;20089;-53
2022/07/03 06:02:46;;;;;;;3.95;2.20;;;;;;;18.41;100.00;101719.03;2613714;31;20307;-55
2022/07/03 06:05:17;;;;;;;6.13;2.17;;;;;;;18.48;100.00;101712.75;2613626;36;20034;-57
2022/07/03 06:07:45;;;;;;;4.07;1.92;;;;;;;18.43;100.00;101720.53;2613022;36;20034;-53
2022/07/03 06:10:13;;;;;;;6.13;2.27;;;;;;;18.30;100.00;101725.63;2614040;36;20415;-56
2022/07/03 06:12:42;;;;;;;4.95;1.95;;;;;;;18.34;100.00;101732.47;2613724;31;20310;-55
2022/07/03 06:15:11;;;;;;;5.72;1.80;;;;;;;18.47;100.00;101727.38;2613013;36;20487;-55
2022/07/03 06:17:39;;;;;;;;;;;;;;;18.59;100.00;101718.88;2612420;36;20037;-56
2022/07/03 06:20:09;;;;;;;4.55;1.60;;;;;;;18.51;100.00;101726.03;2613920;36;19942;-57
2022/07/03 06:22:40;;;;;;;5.25;1.85;;;;;;;18.49;100.00;101725.34;2612787;36;20440;-58
2022/07/03 06:25:10;;;;;;;6.65;1.88;;;;;;;18.53;100.00;101726.69;2613320;36;20035;-54
2022/07/03 06:27:38;;;;;;;3.58;1.55;;;;;;;18.38;100.00;101725.66;2613459;36;20038;-55
2022/07/03 06:30:08;;;;;;;4.78;1.73;;;;;;;18.47;100.00;101721.94;2613587;36;20551;-52
2022/07/03 06:32:36;;;;;;;4.05;1.40;;;;;;;18.79;100.00;101714.81;2613458;36;20065;-56
2022/07/03 06:35:05;;;;;;;6.82;1.80;;;;;;;18.74;100.00;101728.09;2614132;36;20038;-57
2022/07/03 06:37:33;;;;;;;3.17;1.50;;;;;;;18.87;100.00;101728.50;2613074;36;20452;-52
2022/07/03 06:40:04;;;;;;;4.13;1.58;;;;;;;18.94;100.00;101733.28;2613415;36;20537;-55
2022/07/03 06:42:32;;;;;;;8.57;1.77;;;;;;;19.20;100.00;101731.22;2613674;36;20416;-55
2022/07/03 06:45:01;;;;;;;5.82;1.77;;;;;;;19.51;100.00;101730.50;2613352;36;20022;-57
2022/07/03 06:47:29;;;;;;;5.05;1.50;;;;;;;19.34;100.00;101728.81;2615014;31;20460;-54
2022/07/03 06:49:58;;;;;;;4.65;1.80;;;;;;;19.30;100.00;101727.44;2613848;36;20057;-56
2022/07/03 06:52:26;;;;;;;6.20;2.20;;;;;;;19.03;100.00;101734.97;2612655;36;20587;-52
2022/07/03 06:54:54;;;;;;;5.32;1.88;;;;;;;19.12;100.00;101728.47;2612917;36;20626;-53
2022/07/03 06:57:25;;;;;;;4.18;1.40;;;;;;;19.08;100.00;101743.53;2613071;36;20022;-57
2022/07/03 06:59:53;;;;;;;7.63;1.70;;;;;;;19.27;100.00;101731.38;2612332;36;20572;-55
2022/07/03 07:02:22;;;;;;;5.25;1.70;;;;;;;19.48;100.00;101735.44;2613584;36;20034;-55
2022/07/03 07:04:50;;;;;;;5.72;1.67;;;;;;;19.63;100.00;101735.59;2613355;36;20031;-56
2022/07/03 07:07:18;;;;;;;6.93;1.60;;;;;;;19.81;100.00;101743.59;2613652;31;20487;-55
2022/07/03 07:09:47;;;;;;;7.53;1.73;;;;;;;19.62;100.00;101740.19;2613938;31;20432;-56
2022/07/03 07:12:15;;;;;;;7.85;1.52;;;;;;;19.85;100.00;101739.50;2612395;36;20050;-58
2022/07/03 07:14:46;;;;;;;6.45;1.60;;;;;;;20.16;100.00;101744.16;2612557;36;20034;-57
2022/07/03 07:17:14;;;;;;;6.95;1.45;;;;;;;20.34;100.00;101730.22;2612675;31;20073;-53
2022/07/03 07:19:42;;;;;;;6.72;1.75;;;;;;;20.45;100.00;101737.97;2613437;36;20038;-59
2022/07/03 07:22:11;;;;;;;6.40;1.48;;;;;;;20.31;100.00;101734.16;2612985;36;20034;-57
2022/07/03 07:24:39;;;;;;;4.57;1.40;;;;;;;20.42;100.00;101741.09;2614035;36;20065;-53
2022/07/03 07:27:07;;;;;;;4.20;1.30;;;;;;;20.52;100.00;101728.03;2613275;36;20037;-53
2022/07/03 07:29:36;;;;;;;4.45;1.20;;;;;;;20.91;100.00;101732.59;2611355;36;20034;-52
2022/07/03 07:32:08;;;;;;;4.80;1.55;;;;;;;20.89;100.00;101720.09;2613045;31;20061;-56
2022/07/03 07:34:36;;;;;;;5.30;1.23;;;;;;;21.02;100.00;101722.22;2613653;36;20045;-54
2022/07/03 07:37:04;;;;;;;5.47;1.52;;;;;;;21.05;100.00;101721.88;2614756;36;20420;-57
2022/07/03 07:39:33;;;;;;;4.25;1.30;;;;;;;20.41;100.00;101734.78;2613812;36;20814;-54
2022/07/03 07:42:01;;;;;;;4.60;1.80;;;;;;;20.69;100.00;101728.81;2613260;36;20042;-55
2022/07/03 07:44:29;;;;;;;3.13;1.20;;;;;;;21.07;100.00;101733.47;2612715;36;20042;-58
2022/07/03 07:46:58;;;;;;;3.85;1.30;;;;;;;21.07;100.00;101730.72;2613270;36;20041;-54
2022/07/03 07:49:29;;;;;;;3.25;1.13;;;;;;;21.65;100.00;101731.91;2612528;36;20036;-55
2022/07/03 07:51:57;;;;;;;5.78;1.30;;;;;;;22.04;100.00;101733.50;2612399;36;20042;-54
2022/07/03 07:54:28;;;;;;;3.63;1.77;;;;;;;21.85;100.00;101734.09;2612892;36;20046;-55
2022/07/03 07:56:56;;;;;;;5.43;1.50;;;;;;;21.25;100.00;101744.94;2612654;31;20041;-56
2022/07/03 07:59:25;;;;;;;3.92;1.33;;;;;;;20.96;100.00;101740.25;2612513;36;20061;-56
2022/07/03 08:07:17;;;;;;;4.07;1.42;;;;;;;22.12;100.00;101756.38;2612883;32;20031;-56
2022/07/03 08:09:45;;;;;;;3.47;1.13;;;;;;;22.48;100.00;101741.84;2613997;36;20424;-54
2022/07/03 08:12:14;;;;;;;2.65;1.27;;;;;;;22.60;100.00;101751.28;2613373;36;20576;-55
2022/07/03 08:14:42;;;;;;;2.60;1.23;;;;;;;21.92;100.00;101745.97;2613589;36;20023;-54
2022/07/03 08:17:11;;;;;;;4.50;1.33;;;;;;;22.15;100.00;101748.59;2614292;36;20041;-55
2022/07/03 08:19:42;;;;;;;3.35;1.10;;;;;;;22.40;100.00;101754.63;2613449;36;20030;-53
2022/07/03 08:22:11;;;;;;;3.00;1.17;;;;;;;22.60;100.00;101751.28;2613363;36;20039;-53
2022/07/03 08:24:40;;;;;;;5.72;1.25;;;;;;;22.55;100.00;101743.63;2613419;31;20041;-54
2022/07/03 08:27:08;;;;;;;3.47;1.52;;;;;;;22.74;100.00;101755.84;2613304;36;20038;-56
2022/07/03 08:29:37;;;;;;;4.40;1.42;;;;;;;22.31;100.00;101750.28;2614330;36;20041;-55
2022/07/03 08:32:07;;;;;;;2.15;1.10;;;;;;;22.27;100.00;101759.94;2613189;36;20041;-54
2022/07/03 08:34:35;;;;;;;3.97;1.20;;;;;;;21.54;100.00;101754.31;2613105;36;20041;-53
2022/07/03 08:37:06;;;;;;;2.55;1.20;;;;;;;21.81;100.00;101760.16;2613266;36;20061;-57
2022/07/03 08:39:35;;;;;;;5.10;1.50;;;;;;;21.81;100.00;101765.66;2613254;36;20042;-58
2022/07/03 08:42:04;;;;;;;7.20;1.50;;;;;;;22.40;100.00;101765.59;2613487;36;20045;-54
2022/07/03 08:44:33;;;;;;;;;;;;;;;22.22;100.00;101760.50;2615014;31;20042;-55
2022/07/03 08:47:01;;;;;;;;;;;;;;;22.04;100.00;101760.91;2613692;32;19953;-55
2022/07/03 08:49:31;;;;;;;4.32;1.60;;;;;;;21.93;100.00;101760.53;2613101;36;19985;-56
2022/07/03 08:52:02;;;;;;;5.68;1.90;;;;;;;22.32;100.00;101759.38;2613168;36;20030;-55
2022/07/03 08:54:33;;;;;;;4.82;1.60;;;;;;;22.17;100.00;101756.63;2614314;31;20065;-56
2022/07/03 08:57:03;;;;;;;5.43;1.75;;;;;;;22.52;100.00;101757.72;2613595;36;20116;-57
2022/07/03 08:59:38;;;;;;;4.93;1.50;;;;;;;22.25;100.00;101751.06;2613699;31;20061;-56
2022/07/03 09:02:08;;;;;;;6.32;1.40;;;;;;;22.07;100.00;101747.84;2612508;36;20034;-56
2022/07/03 09:04:37;;;;;;;5.43;1.35;;;;;;;21.57;100.00;101747.56;2613119;36;20462;-57
2022/07/03 09:07:09;;;;;;;5.25;1.33;;;;;;;22.11;100.00;101749.19;2614592;36;20417;-56
2022/07/03 09:09:41;;;;;;;3.13;1.25;;;;;;;22.54;100.00;101749.28;2612617;36;20057;-56
2022/07/03 09:12:11;;;;;;;2.95;1.30;;;;;;;22.40;100.00;101751.88;2613011;36;20039;-57
2022/07/03 09:14:39;;;;;;;4.05;1.30;;;;;;;22.65;100.00;101739.72;2611257;36;20069;-57
2022/07/03 09:17:08;;;;;;;2.10;1.00;;;;;;;22.77;100.00;101740.06;2613413;36;20057;-57
2022/07/03 09:19:46;;;;;;;3.20;1.40;;;;;;;22.19;100.00;101746.34;2612659;36;20065;-55
2022/07/03 09:22:24;;;;;;;3.15;1.40;;;;;;;22.37;100.00;101743.22;2613980;36;20038;-57
2022/07/03 09:24:57;;;;;;;;;;;;;;;22.84;100.00;101739.06;2613983;36;20035;-57
2022/07/03 09:27:25;;;;;;;2.42;1.00;;;;;;;23.24;100.00;101744.94;2614379;36;19977;-60
2022/07/03 09:30:00;;;;;;;;;;;;;;;23.43;100.00;101748.91;2613888;36;20038;-56
2022/07/03 09:32:29;;;;;;;3.92;1.30;;;;;;;23.40;100.00;101743.81;2613872;36;19947;-55
2022/07/03 09:35:16;;;;;;;2.17;1.00;;;;;;;23.60;100.00;101738.47;2613048;36;20040;-56
2022/07/03 09:37:51;;;;;;;2.28;1.20;;;;;;;24.10;100.00;101743.84;2614044;36;20041;-57
2022/07/03 09:40:22;;;;;;;2.13;1.00;;;;;;;23.08;100.00;101737.81;2614361;36;20035;-58
2022/07/03 09:43:01;;;;;;;2.47;1.10;;;;;;;23.41;100.00;101734.53;2614841;36;20459;-55
2022/07/03 09:45:50;;;;;;;2.10;0.90;;;;;;;23.72;100.00;101746.16;2613781;36;20038;-54
2022/07/03 09:48:25;;;;;;;2.10;1.13;;;;;;;23.37;100.00;101749.69;2612282;31;20038;-56
2022/07/03 09:51:15;;;;;;;4.82;1.30;;;;;;;23.22;100.00;101746.22;2614261;36;20038;-54
2022/07/03 09:53:47;;;;;;;3.13;1.23;;;;;;;23.28;100.00;101734.41;2614840;31;20116;-59
2022/07/03 09:56:19;;;;;;;2.65;1.20;;;;;;;23.00;100.00;101748.09;2612031;31;20076;-58
2022/07/03 09:59:12;;;;;;;2.38;1.20;;;;;;;23.11;100.00;101741.25;2613745;36;20055;-55
2022/07/03 10:01:42;;;;;;;4.40;1.40;;;;;;;23.58;100.00;101739.69;2613852;36;20038;-57
2022/07/03 10:04:19;;;;;;;1.38;1.08;;;;;;;24.20;100.00;101737.09;2612905;36;20440;-56
2022/07/03 10:06:52;;;;;;;3.30;1.10;;;;;;;24.91;100.00;101735.81;2614636;31;20539;-55
2022/07/03 10:09:22;;;;;;;2.97;1.20;;;;;;;24.75;100.00;101745.31;2614033;31;20030;-57
2022/07/03 10:11:54;;;;;;;1.40;1.10;;;;;;;24.51;100.00;101741.22;2614019;31;20034;-57
2022/07/03 10:14:24;;;;;;;5.20;1.23;;;;;;;24.49;100.00;101747.78;2613391;36;20034;-57
2022/07/03 10:16:53;;;;;;;2.90;1.17;;;;;;;24.58;100.00;101755.84;2614014;36;20038;-55
2022/07/03 10:19:23;;;;;;;4.95;1.20;;;;;;;24.80;100.00;101743.63;2613244;36;20061;-58
2022/07/03 10:21:55;;;;;;;3.83;1.25;;;;;;;24.60;100.00;101749.13;2611497;36;20034;-55
2022/07/03 10:24:24;;;;;;;4.80;1.38;;;;;;;24.66;100.00;101747.41;2611632;31;20054;-57
2022/07/03 10:26:57;;;;;;;3.58;1.13;;;;;;;24.11;100.00;101753.75;2613287;36;20034;-57
2022/07/03 10:29:27;;;;;;;3.05;1.45;;;;;;;24.79;100.00;101747.47;2612569;36;20046;-55
2022/07/03 10:31:55;;;;;;;3.80;1.38;;;;;;;25.61;100.00;101738.16;2580680;36;20126;-56
2022/07/03 10:34:26;;;;;;;5.88;2.03;;;;;;;25.24;100.00;101738.59;2613094;36;20066;-57
2022/07/03 10:36:56;;;;;;;6.72;1.58;;;;;;;24.73;100.00;101748.28;2612916;36;20057;-56
2022/07/03 10:39:35;;;;;;;6.82;1.20;;;;;;;24.90;100.00;101759.75;2612075;36;20057;-57
2022/07/03 10:45:05;;;;;;;2.65;1.40;;;;;;;25.78;100.00;101741.28;2611130;31;20035;-58
2022/07/03 10:47:41;;;;;;;4.57;1.27;;;;;;;25.63;100.00;101741.53;2613143;36;20034;-57
2022/07/03 10:50:12;;;;;;;6.05;1.40;;;;;;;25.93;100.00;101746.53;2612746;31;20408;-54
2022/07/03 10:52:42;;;;;;;4.93;1.67;;;;;;;25.87;100.00;101743.59;2612429;36;20043;-56
2022/07/03 10:55:11;;;;;;;3.63;1.35;;;;;;;26.10;95.07;101742.25;2611904;36;20031;-57
2022/07/03 10:57:43;;;;;;;4.55;1.15;;;;;;;26.15;97.16;101745.22;2612319;36;20061;-55
2022/07/03 11:00:17;;;;;;;3.90;1.42;;;;;;;25.69;94.79;101743.41;2611988;36;20062;-58
2022/07/03 11:02:48;;;;;;;4.07;1.30;;;;;;;26.40;96.58;101752.78;2612508;36;20049;-58
2022/07/03 11:05:24;;;;;;;4.28;1.13;;;;;;;26.20;97.77;101742.66;2613008;36;22714;-57
2022/07/03 11:08:07;;;;;;;4.20;1.42;;;;;;;25.92;98.37;101733.84;2612946;36;20560;-55
2022/07/03 11:10:40;;;;;;;2.47;1.15;;;;;;;26.27;94.63;101733.53;2612599;36;20034;-56
2022/07/03 11:13:20;;;;;;;3.53;1.20;;;;;;;25.01;100.00;101744.50;2613836;36;20034;-58
2022/07/03 11:15:51;;;;;;;3.08;1.48;;;;;;;24.84;100.00;101739.41;2612573;36;20035;-56
2022/07/03 11:18:40;;;;;;;5.10;1.30;;;;;;;24.33;100.00;101739.06;2612229;31;20034;-56
2022/07/03 11:21:35;;;;;;;4.57;1.45;;;;;;;24.07;100.00;101744.25;2613421;36;20031;-56
2022/07/03 11:24:39;;;;;;;4.90;1.58;;;;;;;23.49;100.00;101725.25;2611993;36;20069;-55
2022/07/03 11:27:16;;;;;;;4.50;1.30;;;;;;;23.26;100.00;101725.50;2612555;36;20065;-55
2022/07/03 11:29:51;;;;;;;5.82;1.48;;;;;;;23.11;100.00;101730.25;2612784;36;20035;-56
2022/07/03 11:32:49;;;;;;;3.08;1.38;;;;;;;22.80;100.00;101742.41;2612033;36;20034;-55
2022/07/03 11:35:54;;;;;;;4.77;1.90;;;;;;;22.61;100.00;101744.75;2613507;36;20303;-53
2022/07/03 11:38:28;;;;;;;4.63;1.30;;;;;;;22.13;100.00;101739.72;2612510;31;20317;-57
2022/07/03 11:40:59;;;;;;;2.25;1.50;;;;;;;21.50;100.00;101748.31;2613337;36;20455;-57
2022/07/03 11:43:27;;;;;;;4.68;1.60;;;;;;;20.90;100.00;101780.13;2614220;36;20034;-55
2022/07/03 11:45:58;;;;;;;;;;;;;;;19.84;100.00;101801.44;2614064;36;20061;-59
2022/07/03 11:48:28;;;;;;;8.23;3.17;;;;;;;19.07;100.00;101823.66;2613539;36;19993;-57
2022/07/03 11:51:02;;;;;;;14.90;3.28;;;;;;;18.63;100.00;101835.63;2614103;36;20030;-59